sensor_id;sensor_type;location;lat;lon;timestamp;temperature;humidity
32749;DHT22;19119;52.474;13.710;2023-03-20T00:01:29;11.60;99.90
32749;DHT22;19119;52.474;13.710;2023-03-20T00:03:55;11.60;99.90
32749;DHT22;19119;52.474;13.710;2023-03-20T00:06:23;11.60;99.90
32749;DHT22;19119;52.474;13.710;2023-03-20T00:08:51;11.60;99.90
32749;DHT22;19119;52.474;13.710;2023-03-20T00:14:00;11.60;99.90
32749;DHT22;19119;52.474;13.710;2023-03-20T00:16:30;11.60;99.90
32749;DHT22;19119;52.474;13.710;2023-03-20T00:18:56;11.50;99.90
32749;DHT22;19119;52.474;13.710;2023-03-20T00:21:23;11.60;99.90
32749;DHT22;19119;52.474;13.710;2023-03-20T00:23:48;11.50;99.90
32749;DHT22;19119;52.474;13.710;2023-03-20T00:26:15;11.50;99.90
32749;DHT22;19119;52.474;13.710;2023-03-20T00:28:47;11.50;99.90
32749;DHT22;19119;52.474;13.710;2023-03-20T00:31:39;11.50;99.90
32749;DHT22;19119;52.474;13.710;2023-03-20T00:34:09;11.40;99.90
32749;DHT22;19119;52.474;13.710;2023-03-20T00:36:36;11.30;99.90
32749;DHT22;19119;52.474;13.710;2023-03-20T00:39:02;11.30;99.90
32749;DHT22;19119;52.474;13.710;2023-03-20T00:44:21;11.20;99.90
32749;DHT22;19119;52.474;13.710;2023-03-20T00:46:59;11.20;99.90
32749;DHT22;19119;52.474;13.710;2023-03-20T00:49:28;11.10;99.90
32749;DHT22;19119;52.474;13.710;2023-03-20T00:51:54;11.10;99.90
32749;DHT22;19119;52.474;13.710;2023-03-20T00:54:20;11.10;99.90
32749;DHT22;19119;52.474;13.710;2023-03-20T00:59:40;10.90;99.90
32749;DHT22;19119;52.474;13.710;2023-03-20T01:02:07;10.80;99.90
32749;DHT22;19119;52.474;13.710;2023-03-20T01:04:39;10.80;99.90
32749;DHT22;19119;52.474;13.710;2023-03-20T01:07:06;10.80;99.90
32749;DHT22;19119;52.474;13.710;2023-03-20T01:09:31;10.80;99.90
32749;DHT22;19119;52.474;13.710;2023-03-20T01:12:01;10.80;99.90
32749;DHT22;19119;52.474;13.710;2023-03-20T01:14:27;10.70;99.90
32749;DHT22;19119;52.474;13.710;2023-03-20T01:16:52;10.80;99.90
32749;DHT22;19119;52.474;13.710;2023-03-20T01:19:18;10.70;99.90
32749;DHT22;19119;52.474;13.710;2023-03-20T01:21:44;10.70;99.90
32749;DHT22;19119;52.474;13.710;2023-03-20T01:24:09;10.70;99.90
32749;DHT22;19119;52.474;13.710;2023-03-20T01:26:40;10.70;99.90
32749;DHT22;19119;52.474;13.710;2023-03-20T01:29:20;10.60;99.90
32749;DHT22;19119;52.474;13.710;2023-03-20T01:31:46;10.50;99.90
32749;DHT22;19119;52.474;13.710;2023-03-20T01:34:12;10.40;99.90
32749;DHT22;19119;52.474;13.710;2023-03-20T01:36:39;10.40;99.90
32749;DHT22;19119;52.474;13.710;2023-03-20T01:39:09;10.30;99.90
32749;DHT22;19119;52.474;13.710;2023-03-20T01:41:34;10.20;99.90
32749;DHT22;19119;52.474;13.710;2023-03-20T01:44:15;10.20;99.90
32749;DHT22;19119;52.474;13.710;2023-03-20T01:46:41;10.10;99.90
32749;DHT22;19119;52.474;13.710;2023-03-20T01:51:54;10.10;99.90
32749;DHT22;19119;52.474;13.710;2023-03-20T01:54:28;10.00;99.90
32749;DHT22;19119;52.474;13.710;2023-03-20T01:57:07;9.90;99.90
32749;DHT22;19119;52.474;13.710;2023-03-20T01:59:39;9.90;99.90
32749;DHT22;19119;52.474;13.710;2023-03-20T02:02:06;9.80;99.90
32749;DHT22;19119;52.474;13.710;2023-03-20T02:04:36;9.80;99.90
32749;DHT22;19119;52.474;13.710;2023-03-20T02:07:04;9.70;99.90
32749;DHT22;19119;52.474;13.710;2023-03-20T02:09:31;9.60;99.90
32749;DHT22;19119;52.474;13.710;2023-03-20T02:11:58;9.60;99.90
32749;DHT22;19119;52.474;13.710;2023-03-20T02:14:25;9.60;99.90
32749;DHT22;19119;52.474;13.710;2023-03-20T02:16:51;9.60;99.90
32749;DHT22;19119;52.474;13.710;2023-03-20T02:28:19;9.50;99.90
32749;DHT22;19119;52.474;13.710;2023-03-20T02:36:14;9.40;99.90
32749;DHT22;19119;52.474;13.710;2023-03-20T02:39:05;9.40;99.90
32749;DHT22;19119;52.474;13.710;2023-03-20T02:41:41;9.40;99.90
32749;DHT22;19119;52.474;13.710;2023-03-20T02:49:57;9.50;99.90
32749;DHT22;19119;52.474;13.710;2023-03-20T02:53:29;9.40;99.90
32749;DHT22;19119;52.474;13.710;2023-03-20T02:55:47;9.30;99.90
32749;DHT22;19119;52.474;13.710;2023-03-20T02:58:23;9.30;99.90
32749;DHT22;19119;52.474;13.710;2023-03-20T03:01:01;9.30;99.90
32749;DHT22;19119;52.474;13.710;2023-03-20T03:03:44;9.30;99.90
32749;DHT22;19119;52.474;13.710;2023-03-20T03:06:26;9.40;99.90
32749;DHT22;19119;52.474;13.710;2023-03-20T03:09:05;9.20;99.90
32749;DHT22;19119;52.474;13.710;2023-03-20T03:11:33;9.30;99.90
32749;DHT22;19119;52.474;13.710;2023-03-20T03:14:01;9.30;99.90
32749;DHT22;19119;52.474;13.710;2023-03-20T03:16:30;9.30;99.90
32749;DHT22;19119;52.474;13.710;2023-03-20T03:19:06;9.30;99.90
32749;DHT22;19119;52.474;13.710;2023-03-20T03:21:34;9.40;99.90
32749;DHT22;19119;52.474;13.710;2023-03-20T03:24:02;9.40;99.90
32749;DHT22;19119;52.474;13.710;2023-03-20T03:26:31;9.40;99.90
32749;DHT22;19119;52.474;13.710;2023-03-20T03:29:00;9.40;99.90
32749;DHT22;19119;52.474;13.710;2023-03-20T03:31:28;9.40;99.90
32749;DHT22;19119;52.474;13.710;2023-03-20T03:33:56;9.50;99.90
32749;DHT22;19119;52.474;13.710;2023-03-20T03:42:29;9.50;99.90
32749;DHT22;19119;52.474;13.710;2023-03-20T03:47:45;9.60;99.90
32749;DHT22;19119;52.474;13.710;2023-03-20T03:50:31;9.60;99.90
32749;DHT22;19119;52.474;13.710;2023-03-20T03:53:02;9.70;99.90
32749;DHT22;19119;52.474;13.710;2023-03-20T03:55:33;9.70;99.90
32749;DHT22;19119;52.474;13.710;2023-03-20T03:58:46;9.70;99.90
32749;DHT22;19119;52.474;13.710;2023-03-20T04:00:52;9.70;99.90
32749;DHT22;19119;52.474;13.710;2023-03-20T04:03:20;9.70;99.90
32749;DHT22;19119;52.474;13.710;2023-03-20T04:05:50;9.70;99.90
32749;DHT22;19119;52.474;13.710;2023-03-20T04:08:16;9.70;99.90
32749;DHT22;19119;52.474;13.710;2023-03-20T04:10:42;9.80;99.90
32749;DHT22;19119;52.474;13.710;2023-03-20T04:13:07;9.90;99.90
32749;DHT22;19119;52.474;13.710;2023-03-20T04:15:33;9.90;99.90
32749;DHT22;19119;52.474;13.710;2023-03-20T04:17:58;9.90;99.90
32749;DHT22;19119;52.474;13.710;2023-03-20T04:20:26;9.90;99.90
32749;DHT22;19119;52.474;13.710;2023-03-20T04:22:52;10.00;99.90
32749;DHT22;19119;52.474;13.710;2023-03-20T04:25:21;10.00;99.90
32749;DHT22;19119;52.474;13.710;2023-03-20T04:27:47;10.00;99.90
32749;DHT22;19119;52.474;13.710;2023-03-20T04:30:13;10.00;99.90
32749;DHT22;19119;52.474;13.710;2023-03-20T04:32:38;10.00;99.90
32749;DHT22;19119;52.474;13.710;2023-03-20T04:35:04;9.90;99.90
32749;DHT22;19119;52.474;13.710;2023-03-20T04:37:30;9.80;99.90
32749;DHT22;19119;52.474;13.710;2023-03-20T04:39:56;9.90;99.90
32749;DHT22;19119;52.474;13.710;2023-03-20T04:42:21;9.80;99.90
32749;DHT22;19119;52.474;13.710;2023-03-20T04:44:47;9.70;99.90
32749;DHT22;19119;52.474;13.710;2023-03-20T04:47:12;9.60;99.90
32749;DHT22;19119;52.474;13.710;2023-03-20T04:49:38;9.60;99.90
32749;DHT22;19119;52.474;13.710;2023-03-20T04:52:03;9.60;99.90
32749;DHT22;19119;52.474;13.710;2023-03-20T04:54:29;9.70;99.90
32749;DHT22;19119;52.474;13.710;2023-03-20T04:56:55;9.80;99.90
32749;DHT22;19119;52.474;13.710;2023-03-20T04:59:21;9.80;99.90
32749;DHT22;19119;52.474;13.710;2023-03-20T05:01:46;9.80;99.90
32749;DHT22;19119;52.474;13.710;2023-03-20T05:04:12;9.80;99.90
32749;DHT22;19119;52.474;13.710;2023-03-20T05:06:37;9.80;99.90
32749;DHT22;19119;52.474;13.710;2023-03-20T05:09:03;9.80;99.90
32749;DHT22;19119;52.474;13.710;2023-03-20T05:11:29;9.70;99.90
32749;DHT22;19119;52.474;13.710;2023-03-20T05:13:54;9.70;99.90
32749;DHT22;19119;52.474;13.710;2023-03-20T05:16:20;9.70;99.90
32749;DHT22;19119;52.474;13.710;2023-03-20T05:18:46;9.70;99.90
32749;DHT22;19119;52.474;13.710;2023-03-20T05:21:12;9.70;99.90
32749;DHT22;19119;52.474;13.710;2023-03-20T05:23:37;9.60;99.90
32749;DHT22;19119;52.474;13.710;2023-03-20T05:26:03;9.60;99.90
32749;DHT22;19119;52.474;13.710;2023-03-20T05:28:30;9.70;99.90
32749;DHT22;19119;52.474;13.710;2023-03-20T05:30:55;9.70;99.90
32749;DHT22;19119;52.474;13.710;2023-03-20T05:33:21;9.60;99.90
32749;DHT22;19119;52.474;13.710;2023-03-20T05:35:47;9.70;99.90
32749;DHT22;19119;52.474;13.710;2023-03-20T05:38:12;9.70;99.90
32749;DHT22;19119;52.474;13.710;2023-03-20T05:40:38;9.60;99.90
32749;DHT22;19119;52.474;13.710;2023-03-20T05:43:06;9.70;99.90
32749;DHT22;19119;52.474;13.710;2023-03-20T05:45:32;9.80;99.90
32749;DHT22;19119;52.474;13.710;2023-03-20T05:47:57;9.80;99.90
32749;DHT22;19119;52.474;13.710;2023-03-20T05:50:23;9.80;99.90
32749;DHT22;19119;52.474;13.710;2023-03-20T05:52:49;9.80;99.90
32749;DHT22;19119;52.474;13.710;2023-03-20T05:55:15;9.80;99.90
32749;DHT22;19119;52.474;13.710;2023-03-20T05:57:41;9.80;99.90
32749;DHT22;19119;52.474;13.710;2023-03-20T06:00:07;9.80;99.90
32749;DHT22;19119;52.474;13.710;2023-03-20T06:02:35;9.90;99.90
32749;DHT22;19119;52.474;13.710;2023-03-20T06:05:01;9.90;99.90
32749;DHT22;19119;52.474;13.710;2023-03-20T06:07:27;9.80;99.90
32749;DHT22;19119;52.474;13.710;2023-03-20T06:09:53;9.90;99.90
32749;DHT22;19119;52.474;13.710;2023-03-20T06:12:18;9.90;99.90
32749;DHT22;19119;52.474;13.710;2023-03-20T06:14:44;9.80;99.90
32749;DHT22;19119;52.474;13.710;2023-03-20T06:17:10;9.90;99.90
32749;DHT22;19119;52.474;13.710;2023-03-20T06:19:36;10.00;99.90
32749;DHT22;19119;52.474;13.710;2023-03-20T06:22:02;10.00;99.90
32749;DHT22;19119;52.474;13.710;2023-03-20T06:24:27;9.90;99.90
32749;DHT22;19119;52.474;13.710;2023-03-20T06:26:53;9.90;99.90
32749;DHT22;19119;52.474;13.710;2023-03-20T06:29:19;9.90;99.90
32749;DHT22;19119;52.474;13.710;2023-03-20T06:31:44;10.00;99.90
32749;DHT22;19119;52.474;13.710;2023-03-20T06:34:10;10.10;99.90
32749;DHT22;19119;52.474;13.710;2023-03-20T06:36:36;10.20;99.90
32749;DHT22;19119;52.474;13.710;2023-03-20T06:39:02;10.10;99.90
32749;DHT22;19119;52.474;13.710;2023-03-20T06:41:28;10.10;99.90
32749;DHT22;19119;52.474;13.710;2023-03-20T06:43:54;10.10;99.90
32749;DHT22;19119;52.474;13.710;2023-03-20T06:46:20;10.10;99.90
32749;DHT22;19119;52.474;13.710;2023-03-20T06:48:46;10.10;99.90
32749;DHT22;19119;52.474;13.710;2023-03-20T06:51:11;10.10;99.90
32749;DHT22;19119;52.474;13.710;2023-03-20T06:53:37;10.30;99.90
32749;DHT22;19119;52.474;13.710;2023-03-20T06:56:04;10.30;99.90
32749;DHT22;19119;52.474;13.710;2023-03-20T06:58:29;10.40;99.90
32749;DHT22;19119;52.474;13.710;2023-03-20T07:00:55;10.40;99.90
32749;DHT22;19119;52.474;13.710;2023-03-20T07:03:21;10.50;99.90
32749;DHT22;19119;52.474;13.710;2023-03-20T07:05:47;10.50;99.90
32749;DHT22;19119;52.474;13.710;2023-03-20T07:08:12;10.60;99.90
32749;DHT22;19119;52.474;13.710;2023-03-20T07:10:40;10.50;99.90
32749;DHT22;19119;52.474;13.710;2023-03-20T07:13:06;10.60;99.90
32749;DHT22;19119;52.474;13.710;2023-03-20T07:15:31;10.50;99.90
32749;DHT22;19119;52.474;13.710;2023-03-20T07:17:57;10.60;99.90
32749;DHT22;19119;52.474;13.710;2023-03-20T07:20:22;10.50;99.90
32749;DHT22;19119;52.474;13.710;2023-03-20T07:22:48;10.50;99.90
32749;DHT22;19119;52.474;13.710;2023-03-20T07:25:13;10.40;99.90
32749;DHT22;19119;52.474;13.710;2023-03-20T07:27:39;10.40;99.90
32749;DHT22;19119;52.474;13.710;2023-03-20T07:30:06;10.40;99.90
32749;DHT22;19119;52.474;13.710;2023-03-20T07:32:31;10.40;99.90
32749;DHT22;19119;52.474;13.710;2023-03-20T07:34:57;10.50;99.90
32749;DHT22;19119;52.474;13.710;2023-03-20T07:37:23;10.40;99.90
32749;DHT22;19119;52.474;13.710;2023-03-20T07:39:48;10.50;99.90
32749;DHT22;19119;52.474;13.710;2023-03-20T07:42:14;10.50;99.90
32749;DHT22;19119;52.474;13.710;2023-03-20T07:44:40;10.50;99.90
32749;DHT22;19119;52.474;13.710;2023-03-20T07:47:06;10.50;99.90
32749;DHT22;19119;52.474;13.710;2023-03-20T07:49:35;10.50;99.90
32749;DHT22;19119;52.474;13.710;2023-03-20T07:52:01;10.60;99.90
32749;DHT22;19119;52.474;13.710;2023-03-20T07:54:26;10.50;99.90
32749;DHT22;19119;52.474;13.710;2023-03-20T07:56:52;10.50;99.90
32749;DHT22;19119;52.474;13.710;2023-03-20T07:59:18;10.50;99.90
32749;DHT22;19119;52.474;13.710;2023-03-20T08:01:44;10.40;99.90
32749;DHT22;19119;52.474;13.710;2023-03-20T08:04:09;10.30;99.90
32749;DHT22;19119;52.474;13.710;2023-03-20T08:06:35;10.20;99.90
32749;DHT22;19119;52.474;13.710;2023-03-20T08:09:04;10.20;99.90
32749;DHT22;19119;52.474;13.710;2023-03-20T08:11:30;10.20;99.90
32749;DHT22;19119;52.474;13.710;2023-03-20T08:13:55;10.10;99.90
32749;DHT22;19119;52.474;13.710;2023-03-20T08:16:21;10.10;99.90
32749;DHT22;19119;52.474;13.710;2023-03-20T08:18:46;10.20;99.90
32749;DHT22;19119;52.474;13.710;2023-03-20T08:21:12;10.20;99.90
32749;DHT22;19119;52.474;13.710;2023-03-20T08:23:38;10.20;99.90
32749;DHT22;19119;52.474;13.710;2023-03-20T08:26:03;10.30;99.90
32749;DHT22;19119;52.474;13.710;2023-03-20T08:28:29;10.20;99.90
32749;DHT22;19119;52.474;13.710;2023-03-20T08:30:54;10.20;99.90
32749;DHT22;19119;52.474;13.710;2023-03-20T08:33:20;10.20;99.90
32749;DHT22;19119;52.474;13.710;2023-03-20T08:35:56;10.20;99.90
32749;DHT22;19119;52.474;13.710;2023-03-20T08:38:22;10.20;99.90
32749;DHT22;19119;52.474;13.710;2023-03-20T08:40:48;10.20;99.90
32749;DHT22;19119;52.474;13.710;2023-03-20T08:43:14;10.20;99.90
32749;DHT22;19119;52.474;13.710;2023-03-20T08:45:40;10.20;99.90
32749;DHT22;19119;52.474;13.710;2023-03-20T08:48:05;10.60;99.90
32749;DHT22;19119;52.474;13.710;2023-03-20T08:50:31;10.50;99.90
32749;DHT22;19119;52.474;13.710;2023-03-20T08:52:56;10.40;99.90
32749;DHT22;19119;52.474;13.710;2023-03-20T08:55:22;10.30;99.90
32749;DHT22;19119;52.474;13.710;2023-03-20T08:57:47;10.40;99.90
32749;DHT22;19119;52.474;13.710;2023-03-20T09:00:14;10.50;99.90
32749;DHT22;19119;52.474;13.710;2023-03-20T09:02:42;10.50;99.90
32749;DHT22;19119;52.474;13.710;2023-03-20T09:05:08;10.50;99.90
32749;DHT22;19119;52.474;13.710;2023-03-20T09:07:34;10.50;99.90
32749;DHT22;19119;52.474;13.710;2023-03-20T09:09:59;10.30;99.90
32749;DHT22;19119;52.474;13.710;2023-03-20T09:12:25;10.50;99.90
32749;DHT22;19119;52.474;13.710;2023-03-20T09:14:51;10.70;99.90
32749;DHT22;19119;52.474;13.710;2023-03-20T09:17:16;10.70;99.90
32749;DHT22;19119;52.474;13.710;2023-03-20T09:19:41;10.90;99.90
32749;DHT22;19119;52.474;13.710;2023-03-20T09:22:12;11.20;99.90
32749;DHT22;19119;52.474;13.710;2023-03-20T09:24:38;11.40;99.90
32749;DHT22;19119;52.474;13.710;2023-03-20T09:27:03;11.60;99.90
32749;DHT22;19119;52.474;13.710;2023-03-20T09:29:29;12.20;99.90
32749;DHT22;19119;52.474;13.710;2023-03-20T09:31:54;12.40;99.90
32749;DHT22;19119;52.474;13.710;2023-03-20T09:34:20;12.50;99.90
32749;DHT22;19119;52.474;13.710;2023-03-20T09:36:45;12.40;99.90
32749;DHT22;19119;52.474;13.710;2023-03-20T09:39:11;12.10;99.90
32749;DHT22;19119;52.474;13.710;2023-03-20T09:41:37;12.20;99.90
32749;DHT22;19119;52.474;13.710;2023-03-20T09:49:46;12.20;99.90
32749;DHT22;19119;52.474;13.710;2023-03-20T09:52:31;12.30;99.90
32749;DHT22;19119;52.474;13.710;2023-03-20T09:55:05;12.40;99.90
32749;DHT22;19119;52.474;13.710;2023-03-20T09:57:42;12.50;99.90
32749;DHT22;19119;52.474;13.710;2023-03-20T10:00:13;12.70;99.90
32749;DHT22;19119;52.474;13.710;2023-03-20T10:03:06;12.60;99.90
32749;DHT22;19119;52.474;13.710;2023-03-20T10:05:48;12.60;99.90
32749;DHT22;19119;52.474;13.710;2023-03-20T10:08:15;12.60;99.90
32749;DHT22;19119;52.474;13.710;2023-03-20T10:10:49;12.70;99.90
32749;DHT22;19119;52.474;13.710;2023-03-20T10:16:06;13.00;99.90
32749;DHT22;19119;52.474;13.710;2023-03-20T10:18:34;13.10;99.90
32749;DHT22;19119;52.474;13.710;2023-03-20T10:21:16;13.10;99.90
32749;DHT22;19119;52.474;13.710;2023-03-20T10:24:04;13.00;99.90
32749;DHT22;19119;52.474;13.710;2023-03-20T10:26:34;13.10;99.90
32749;DHT22;19119;52.474;13.710;2023-03-20T10:29:24;13.50;99.90
32749;DHT22;19119;52.474;13.710;2023-03-20T10:37:52;13.90;99.90
32749;DHT22;19119;52.474;13.710;2023-03-20T10:40:28;13.70;99.90
32749;DHT22;19119;52.474;13.710;2023-03-20T10:42:58;13.40;99.90
32749;DHT22;19119;52.474;13.710;2023-03-20T10:45:36;13.30;99.90
32749;DHT22;19119;52.474;13.710;2023-03-20T10:48:34;13.00;99.90
32749;DHT22;19119;52.474;13.710;2023-03-20T10:51:02;13.10;99.90
32749;DHT22;19119;52.474;13.710;2023-03-20T10:53:44;13.00;99.90
32749;DHT22;19119;52.474;13.710;2023-03-20T10:59:03;13.10;99.90
32749;DHT22;19119;52.474;13.710;2023-03-20T11:01:30;13.10;99.90
32749;DHT22;19119;52.474;13.710;2023-03-20T11:03:56;12.90;99.90
32749;DHT22;19119;52.474;13.710;2023-03-20T11:06:25;12.90;99.90
32749;DHT22;19119;52.474;13.710;2023-03-20T11:08:53;12.80;99.90
32749;DHT22;19119;52.474;13.710;2023-03-20T11:11:26;12.90;99.90
32749;DHT22;19119;52.474;13.710;2023-03-20T11:13:55;12.70;99.90
32749;DHT22;19119;52.474;13.710;2023-03-20T11:16:29;12.80;99.90
32749;DHT22;19119;52.474;13.710;2023-03-20T11:19:05;12.90;99.90
32749;DHT22;19119;52.474;13.710;2023-03-20T11:21:31;12.90;99.90
32749;DHT22;19119;52.474;13.710;2023-03-20T11:23:58;12.80;99.90
32749;DHT22;19119;52.474;13.710;2023-03-20T11:26:39;12.80;99.90
32749;DHT22;19119;52.474;13.710;2023-03-20T11:29:14;12.70;99.90
32749;DHT22;19119;52.474;13.710;2023-03-20T11:31:41;12.70;99.90
32749;DHT22;19119;52.474;13.710;2023-03-20T11:36:39;12.90;99.90
32749;DHT22;19119;52.474;13.710;2023-03-20T11:39:13;12.80;99.90
32749;DHT22;19119;52.474;13.710;2023-03-20T11:41:54;12.90;99.90
32749;DHT22;19119;52.474;13.710;2023-03-20T11:46:54;12.70;99.90
32749;DHT22;19119;52.474;13.710;2023-03-20T11:49:22;12.80;99.90
32749;DHT22;19119;52.474;13.710;2023-03-20T11:52:02;12.80;99.90
32749;DHT22;19119;52.474;13.710;2023-03-20T11:54:36;13.00;99.90
32749;DHT22;19119;52.474;13.710;2023-03-20T11:57:02;13.20;99.90
32749;DHT22;19119;52.474;13.710;2023-03-20T11:59:33;13.40;99.90
32749;DHT22;19119;52.474;13.710;2023-03-20T12:02:02;13.40;99.90
32749;DHT22;19119;52.474;13.710;2023-03-20T12:04:31;13.70;99.90
32749;DHT22;19119;52.474;13.710;2023-03-20T12:07:11;13.90;99.90
32749;DHT22;19119;52.474;13.710;2023-03-20T12:20:23;13.80;99.90
32749;DHT22;19119;52.474;13.710;2023-03-20T12:25:44;13.70;99.90
32749;DHT22;19119;52.474;13.710;2023-03-20T12:28:24;13.70;99.90
32749;DHT22;19119;52.474;13.710;2023-03-20T12:36:20;13.40;99.90
32749;DHT22;19119;52.474;13.710;2023-03-20T12:38:48;13.30;99.90
32749;DHT22;19119;52.474;13.710;2023-03-20T12:41:35;13.40;99.90
32749;DHT22;19119;52.474;13.710;2023-03-20T12:44:19;13.30;99.90
32749;DHT22;19119;52.474;13.710;2023-03-20T12:50:33;13.40;99.90
32749;DHT22;19119;52.474;13.710;2023-03-20T12:58:47;13.80;99.90
32749;DHT22;19119;52.474;13.710;2023-03-20T13:01:28;13.70;99.90
32749;DHT22;19119;52.474;13.710;2023-03-20T13:06:58;13.40;99.90
32749;DHT22;19119;52.474;13.710;2023-03-20T13:14:30;13.30;99.90
32749;DHT22;19119;52.474;13.710;2023-03-20T13:23:00;13.10;99.90
32749;DHT22;19119;52.474;13.710;2023-03-20T13:34:10;13.40;99.90
32749;DHT22;19119;52.474;13.710;2023-03-20T13:37:00;13.40;99.90
32749;DHT22;19119;52.474;13.710;2023-03-20T13:40:01;13.40;99.90
32749;DHT22;19119;52.474;13.710;2023-03-20T13:42:34;13.10;99.90
32749;DHT22;19119;52.474;13.710;2023-03-20T13:45:10;13.10;99.90
32749;DHT22;19119;52.474;13.710;2023-03-20T13:47:44;13.10;99.90
32749;DHT22;19119;52.474;13.710;2023-03-20T13:53:26;13.20;99.90
32749;DHT22;19119;52.474;13.710;2023-03-20T14:04:14;13.30;99.90
32749;DHT22;19119;52.474;13.710;2023-03-20T14:06:50;13.30;99.90
32749;DHT22;19119;52.474;13.710;2023-03-20T14:11:53;13.20;99.90
32749;DHT22;19119;52.474;13.710;2023-03-20T14:17:06;13.30;99.90
32749;DHT22;19119;52.474;13.710;2023-03-20T14:19:35;13.20;99.90
32749;DHT22;19119;52.474;13.710;2023-03-20T14:22:02;13.10;99.90
32749;DHT22;19119;52.474;13.710;2023-03-20T14:24:28;13.20;99.90
32749;DHT22;19119;52.474;13.710;2023-03-20T14:26:56;13.10;99.90
32749;DHT22;19119;52.474;13.710;2023-03-20T14:29:33;13.00;99.90
32749;DHT22;19119;52.474;13.710;2023-03-20T14:32:21;12.90;99.90
32749;DHT22;19119;52.474;13.710;2023-03-20T14:34:52;13.00;99.90
32749;DHT22;19119;52.474;13.710;2023-03-20T14:37:37;13.00;99.90
32749;DHT22;19119;52.474;13.710;2023-03-20T14:45:30;12.90;99.90
32749;DHT22;19119;52.474;13.710;2023-03-20T14:48:32;12.80;99.90
32749;DHT22;19119;52.474;13.710;2023-03-20T14:53:39;12.70;99.90
32749;DHT22;19119;52.474;13.710;2023-03-20T14:56:09;12.70;99.90
32749;DHT22;19119;52.474;13.710;2023-03-20T14:58:56;12.70;99.90
32749;DHT22;19119;52.474;13.710;2023-03-20T15:01:25;12.60;99.90
32749;DHT22;19119;52.474;13.710;2023-03-20T15:04:08;12.50;99.90
32749;DHT22;19119;52.474;13.710;2023-03-20T15:06:47;12.50;99.90
32749;DHT22;19119;52.474;13.710;2023-03-20T15:09:14;12.50;99.90
32749;DHT22;19119;52.474;13.710;2023-03-20T15:11:41;12.50;99.90
32749;DHT22;19119;52.474;13.710;2023-03-20T15:14:08;12.70;99.90
32749;DHT22;19119;52.474;13.710;2023-03-20T15:16:36;12.60;99.90
32749;DHT22;19119;52.474;13.710;2023-03-20T15:19:07;12.60;99.90
32749;DHT22;19119;52.474;13.710;2023-03-20T15:21:43;12.60;99.90
32749;DHT22;19119;52.474;13.710;2023-03-20T15:24:22;12.50;99.90
32749;DHT22;19119;52.474;13.710;2023-03-20T15:26:59;12.40;99.90
32749;DHT22;19119;52.474;13.710;2023-03-20T15:29:26;12.50;99.90
32749;DHT22;19119;52.474;13.710;2023-03-20T15:31:58;12.50;99.90
32749;DHT22;19119;52.474;13.710;2023-03-20T15:34:32;12.50;99.90
32749;DHT22;19119;52.474;13.710;2023-03-20T15:36:59;12.40;99.90
32749;DHT22;19119;52.474;13.710;2023-03-20T15:39:28;12.30;99.90
32749;DHT22;19119;52.474;13.710;2023-03-20T15:42:11;12.30;99.90
32749;DHT22;19119;52.474;13.710;2023-03-20T15:44:39;12.40;99.90
32749;DHT22;19119;52.474;13.710;2023-03-20T15:47:15;12.30;99.90
32749;DHT22;19119;52.474;13.710;2023-03-20T15:49:52;12.40;99.90
32749;DHT22;19119;52.474;13.710;2023-03-20T15:55:05;12.40;99.90
32749;DHT22;19119;52.474;13.710;2023-03-20T15:57:37;12.30;99.90
32749;DHT22;19119;52.474;13.710;2023-03-20T16:00:05;12.20;99.90
32749;DHT22;19119;52.474;13.710;2023-03-20T16:02:34;12.30;99.90
32749;DHT22;19119;52.474;13.710;2023-03-20T16:04:59;12.30;99.90
32749;DHT22;19119;52.474;13.710;2023-03-20T16:07:30;12.20;99.90
32749;DHT22;19119;52.474;13.710;2023-03-20T16:09:57;12.20;99.90
32749;DHT22;19119;52.474;13.710;2023-03-20T16:12:26;12.20;99.90
32749;DHT22;19119;52.474;13.710;2023-03-20T16:14:53;12.30;99.90
32749;DHT22;19119;52.474;13.710;2023-03-20T16:17:20;12.30;99.90
32749;DHT22;19119;52.474;13.710;2023-03-20T16:19:47;12.20;99.90
32749;DHT22;19119;52.474;13.710;2023-03-20T16:22:25;12.30;99.90
32749;DHT22;19119;52.474;13.710;2023-03-20T16:24:54;12.30;99.90
32749;DHT22;19119;52.474;13.710;2023-03-20T16:27:26;12.20;99.90
32749;DHT22;19119;52.474;13.710;2023-03-20T16:30:08;12.20;99.90
32749;DHT22;19119;52.474;13.710;2023-03-20T16:32:40;12.30;99.90
32749;DHT22;19119;52.474;13.710;2023-03-20T16:35:19;12.30;99.90
32749;DHT22;19119;52.474;13.710;2023-03-20T16:37:52;12.30;99.90
32749;DHT22;19119;52.474;13.710;2023-03-20T16:40:33;12.30;99.90
32749;DHT22;19119;52.474;13.710;2023-03-20T16:43:05;12.30;99.90
32749;DHT22;19119;52.474;13.710;2023-03-20T16:45:33;12.30;99.90
32749;DHT22;19119;52.474;13.710;2023-03-20T16:48:22;12.20;99.90
32749;DHT22;19119;52.474;13.710;2023-03-20T16:51:14;12.20;99.90
32749;DHT22;19119;52.474;13.710;2023-03-20T16:53:45;12.20;99.90
32749;DHT22;19119;52.474;13.710;2023-03-20T16:56:25;12.10;99.90
32749;DHT22;19119;52.474;13.710;2023-03-20T16:58:51;12.10;99.90
32749;DHT22;19119;52.474;13.710;2023-03-20T17:01:19;12.00;99.90
32749;DHT22;19119;52.474;13.710;2023-03-20T17:03:54;12.00;99.90
32749;DHT22;19119;52.474;13.710;2023-03-20T17:09:07;11.70;99.90
32749;DHT22;19119;52.474;13.710;2023-03-20T17:11:35;11.80;99.90
32749;DHT22;19119;52.474;13.710;2023-03-20T17:14:01;11.60;99.90
32749;DHT22;19119;52.474;13.710;2023-03-20T17:16:29;11.60;99.90
32749;DHT22;19119;52.474;13.710;2023-03-20T17:19:03;11.60;99.90
32749;DHT22;19119;52.474;13.710;2023-03-20T17:21:29;11.60;99.90
32749;DHT22;19119;52.474;13.710;2023-03-20T17:23:54;11.60;99.90
32749;DHT22;19119;52.474;13.710;2023-03-20T17:26:20;11.60;99.90
32749;DHT22;19119;52.474;13.710;2023-03-20T17:28:46;11.60;99.90
32749;DHT22;19119;52.474;13.710;2023-03-20T17:31:16;11.70;99.90
32749;DHT22;19119;52.474;13.710;2023-03-20T17:33:43;11.60;99.90
32749;DHT22;19119;52.474;13.710;2023-03-20T17:38:39;11.60;99.90
32749;DHT22;19119;52.474;13.710;2023-03-20T17:41:04;11.50;99.90
32749;DHT22;19119;52.474;13.710;2023-03-20T17:43:30;11.60;99.90
32749;DHT22;19119;52.474;13.710;2023-03-20T17:45:57;11.60;99.90
32749;DHT22;19119;52.474;13.710;2023-03-20T17:48:23;11.50;99.90
32749;DHT22;19119;52.474;13.710;2023-03-20T17:50:49;11.60;99.90
32749;DHT22;19119;52.474;13.710;2023-03-20T17:53:18;11.60;99.90
32749;DHT22;19119;52.474;13.710;2023-03-20T17:55:44;11.60;99.90
32749;DHT22;19119;52.474;13.710;2023-03-20T17:58:14;11.60;99.90
32749;DHT22;19119;52.474;13.710;2023-03-20T18:00:40;11.50;99.90
32749;DHT22;19119;52.474;13.710;2023-03-20T18:03:06;11.40;99.90